Time;durP1;ratioP1;P1;durP2;ratioP2;P2;SDS_P1;SDS_P2;PMS_P1;PMS_P2;Temp;Humidity;BMP_temperature;BMP_pressure;BME280_temperature;BME280_humidity;BME280_pressure;Samples;Min_cycle;Max_cycle;Signal;HPM_P1;HPM_P2
2022/05/24 00:00:44;;;;;;;0.10;0.10;;;;;;;;;;5051650;28;20114;-63
2022/05/24 00:03:10;;;;;;;0.20;0.20;;;;;;;;;;5051878;28;20410;-63
2022/05/24 00:05:36;;;;;;;0.53;0.40;;;;;;;;;;5071796;28;20147;-63
2022/05/24 00:08:03;;;;;;;0.83;0.70;;;;;;;;;;5051899;28;20045;-63
2022/05/24 00:10:30;;;;;;;0.43;0.43;;;;;;;;;;5052956;28;20091;-63
2022/05/24 00:12:57;;;;;;;0.70;0.70;;;;;;;;;;5051869;28;20478;-63
2022/05/24 00:15:23;;;;;;;2.13;1.03;;;;;;;;;;5050983;28;20052;-63
2022/05/24 00:17:54;;;;;;;0.90;0.83;;;;;;;;;;5051676;28;20045;-63
2022/05/24 00:20:21;;;;;;;0.53;0.53;;;;;;;;;;5054511;28;20052;-63
2022/05/24 00:22:47;;;;;;;1.43;1.33;;;;;;;;;;5070079;28;20040;-63
2022/05/24 00:25:13;;;;;;;2.33;0.93;;;;;;;;;;5070324;28;20135;-63
2022/05/24 00:27:39;;;;;;;2.93;1.10;;;;;;;;;;5071612;28;20048;-63
2022/05/24 00:30:06;;;;;;;0.73;0.67;;;;;;;;;;5070999;28;20090;-63
2022/05/24 00:32:32;;;;;;;0.73;0.53;;;;;;;;;;5071565;28;20053;-63
2022/05/24 00:34:58;;;;;;;0.40;0.40;;;;;;;;;;5071124;28;20036;-63
2022/05/24 00:37:25;;;;;;;0.30;0.30;;;;;;;;;;5070624;28;20044;-63
2022/05/24 00:39:51;;;;;;;0.20;0.20;;;;;;;;;;5060441;28;20053;-62
2022/05/24 00:42:18;;;;;;;2.00;0.80;;;;;;;;;;5050939;28;20041;-63
2022/05/24 00:44:47;;;;;;;3.23;1.53;;;;;;;;;;5050968;28;20128;-62
2022/05/24 00:47:16;;;;;;;1.20;1.10;;;;;;;;;;5050752;28;20495;-63
2022/05/24 00:49:45;;;;;;;0.20;0.20;;;;;;;;;;5050662;28;20080;-62
2022/05/24 00:52:14;;;;;;;5.00;1.13;;;;;;;;;;5050979;28;20102;-62
2022/05/24 00:54:42;;;;;;;1.60;0.77;;;;;;;;;;5052026;28;20578;-63
2022/05/24 00:57:20;;;;;;;0.20;0.20;;;;;;;;;;5070380;28;20056;-63
2022/05/24 00:59:50;;;;;;;0.50;0.40;;;;;;;;;;5069585;28;20041;-63
2022/05/24 01:02:16;;;;;;;0.43;0.37;;;;;;;;;;5058744;28;20049;-63
2022/05/24 01:04:42;;;;;;;0.13;0.13;;;;;;;;;;5067398;28;20109;-62
2022/05/24 01:07:09;;;;;;;0.30;0.30;;;;;;;;;;5068173;28;20040;-62
2022/05/24 01:09:55;;;;;;;0.00;0.00;;;;;;;;;;5070616;28;20047;-63
2022/05/24 01:12:23;;;;;;;0.70;0.70;;;;;;;;;;5060690;28;20041;-63
2022/05/24 01:14:50;;;;;;;0.40;0.40;;;;;;;;;;5066542;28;20510;-63
2022/05/24 01:17:16;;;;;;;0.53;0.53;;;;;;;;;;5060283;28;20089;-63
2022/05/24 01:19:45;;;;;;;0.00;0.00;;;;;;;;;;5063957;28;20045;-63
2022/05/24 01:22:20;;;;;;;0.70;0.67;;;;;;;;;;5066802;28;20131;-63
2022/05/24 01:24:53;;;;;;;0.10;0.10;;;;;;;;;;5050218;28;20052;-63
2022/05/24 01:27:19;;;;;;;1.40;0.88;;;;;;;;;;5048569;28;20075;-62
2022/05/24 01:29:45;;;;;;;1.00;0.67;;;;;;;;;;5058833;28;20052;-63
2022/05/24 01:37:41;;;;;;;0.47;0.30;;;;;;;;;;5050204;28;20064;-63
2022/05/24 01:40:07;;;;;;;0.20;0.20;;;;;;;;;;5049747;28;20096;-63
2022/05/24 01:42:34;;;;;;;0.83;0.30;;;;;;;;;;5050061;28;20044;-63
2022/05/24 01:45:20;;;;;;;0.30;0.30;;;;;;;;;;5050058;28;20036;-63
2022/05/24 01:47:48;;;;;;;0.23;0.23;;;;;;;;;;5049223;28;20048;-63
2022/05/24 01:50:17;;;;;;;0.30;0.30;;;;;;;;;;5049901;28;20052;-63
2022/05/24 01:52:43;;;;;;;0.57;0.57;;;;;;;;;;5050886;28;20052;-63
2022/05/24 01:55:12;;;;;;;2.30;1.20;;;;;;;;;;5049544;28;20563;-63
2022/05/24 01:57:44;;;;;;;0.27;0.27;;;;;;;;;;5049755;28;20045;-63
2022/05/24 02:00:12;;;;;;;0.70;0.70;;;;;;;;;;5049554;28;20095;-63
2022/05/24 02:02:38;;;;;;;0.63;0.63;;;;;;;;;;5049401;28;20049;-63
2022/05/24 02:05:04;;;;;;;1.10;1.00;;;;;;;;;;5053651;28;20203;-63
2022/05/24 02:07:32;;;;;;;0.67;0.67;;;;;;;;;;5069299;28;20495;-63
2022/05/24 02:09:58;;;;;;;4.73;1.17;;;;;;;;;;5069324;28;20052;-63
2022/05/24 02:12:30;;;;;;;1.17;1.03;;;;;;;;;;5068931;28;20121;-63
2022/05/24 02:14:59;;;;;;;2.10;1.33;;;;;;;;;;5068354;28;20044;-63
2022/05/24 02:17:27;;;;;;;2.60;0.87;;;;;;;;;;5066905;28;20040;-62
2022/05/24 02:19:58;;;;;;;1.17;0.50;;;;;;;;;;5068969;28;20076;-63
2022/05/24 02:22:25;;;;;;;1.50;1.03;;;;;;;;;;5068956;28;20044;-63
2022/05/24 02:24:56;;;;;;;3.23;1.77;;;;;;;;;;5069210;28;20041;-63
2022/05/24 02:27:22;;;;;;;2.30;2.10;;;;;;;;;;5056369;28;20962;-63
2022/05/24 02:29:48;;;;;;;5.40;0.80;;;;;;;;;;5048604;28;20135;-63
2022/05/24 02:32:14;;;;;;;1.90;1.33;;;;;;;;;;5049221;28;20049;-63
2022/05/24 02:34:40;;;;;;;4.07;2.23;;;;;;;;;;5049127;28;20453;-63
2022/05/24 02:37:06;;;;;;;3.33;1.23;;;;;;;;;;5061106;28;20036;-63
2022/05/24 02:41:28;;;;;;;0.93;0.87;;;;;;;;;;5067445;28;20511;-63
2022/05/24 02:42:18;;;;;;;3.43;1.70;;;;;;;;;;5068997;28;20095;-63
2022/05/24 02:44:44;;;;;;;3.40;2.03;;;;;;;;;;5068680;28;20048;-63
2022/05/24 02:47:10;;;;;;;1.63;1.50;;;;;;;;;;5068731;28;20060;-63
2022/05/24 02:49:36;;;;;;;0.80;0.80;;;;;;;;;;5068770;28;20064;-63
2022/05/24 02:52:02;;;;;;;0.83;0.63;;;;;;;;;;5069206;28;20040;-63
2022/05/24 02:54:28;;;;;;;4.53;2.70;;;;;;;;;;5049958;28;20053;-63
2022/05/24 02:56:54;;;;;;;2.63;1.80;;;;;;;;;;5048742;28;20853;-63
2022/05/24 02:59:20;;;;;;;2.07;1.87;;;;;;;;;;5048788;28;20052;-63
2022/05/24 03:01:46;;;;;;;2.10;1.33;;;;;;;;;;5048538;28;20399;-63
2022/05/24 03:04:12;;;;;;;1.70;1.17;;;;;;;;;;5057395;28;20094;-63
2022/05/24 03:09:35;;;;;;;6.27;2.83;;;;;;;;;;5048465;28;20045;-63
2022/05/24 03:14:46;;;;;;;2.63;1.17;;;;;;;;;;5055507;28;20040;-63
2022/05/24 03:17:12;;;;;;;0.53;0.50;;;;;;;;;;5058371;28;20043;-63
2022/05/24 03:19:38;;;;;;;1999.90;999.90;;;;;;;;;;5060547;28;20045;-63
2022/05/24 03:22:05;;;;;;;96.23;51.40;;;;;;;;;;5066524;28;20181;-63
2022/05/24 03:24:31;;;;;;;87.77;48.47;;;;;;;;;;5068514;28;20558;-63
2022/05/24 03:26:57;;;;;;;77.00;44.83;;;;;;;;;;5072591;28;20136;-63
2022/05/24 03:29:22;;;;;;;80.27;45.97;;;;;;;;;;5071554;28;20040;-63
2022/05/24 03:31:48;;;;;;;68.73;43.00;;;;;;;;;;5072423;28;20048;-62
2022/05/24 03:34:14;;;;;;;60.77;42.37;;;;;;;;;;5071321;28;20683;-63
2022/05/24 03:36:40;;;;;;;65.17;39.93;;;;;;;;;;5058648;28;20041;-63
2022/05/24 03:39:07;;;;;;;68.53;40.57;;;;;;;;;;5068561;28;20040;-63
2022/05/24 03:41:33;;;;;;;94.50;46.23;;;;;;;;;;5071848;28;20048;-62
2022/05/24 03:43:59;;;;;;;69.90;43.60;;;;;;;;;;5072088;28;20490;-62
2022/05/24 03:46:25;;;;;;;76.03;43.13;;;;;;;;;;5071307;28;20051;-62
2022/05/24 03:48:51;;;;;;;65.27;40.97;;;;;;;;;;5071515;28;20040;-62
2022/05/24 03:51:17;;;;;;;63.10;40.37;;;;;;;;;;5071663;28;20051;-62
2022/05/24 03:53:43;;;;;;;67.63;42.17;;;;;;;;;;5071494;28;20044;-63
2022/05/24 03:56:09;;;;;;;66.83;41.73;;;;;;;;;;5066552;28;20049;-62
2022/05/24 03:58:36;;;;;;;69.67;41.63;;;;;;;;;;5051691;28;20500;-62
2022/05/24 04:01:02;;;;;;;68.57;40.93;;;;;;;;;;5054018;28;20045;-62
2022/05/24 04:03:28;;;;;;;70.73;42.20;;;;;;;;;;5058848;28;20037;-62
2022/05/24 04:05:54;;;;;;;81.93;45.17;;;;;;;;;;5060402;28;20044;-62
2022/05/24 04:08:24;;;;;;;80.47;43.83;;;;;;;;;;5050326;28;20045;-62
2022/05/24 04:10:50;;;;;;;65.53;40.67;;;;;;;;;;5051491;28;20049;-62
2022/05/24 04:13:16;;;;;;;67.27;43.47;;;;;;;;;;5051410;28;20095;-62
2022/05/24 04:15:42;;;;;;;67.50;42.00;;;;;;;;;;5050916;28;20134;-62
2022/05/24 04:18:08;;;;;;;58.37;39.47;;;;;;;;;;5051141;28;20445;-62
2022/05/24 04:20:35;;;;;;;72.30;40.00;;;;;;;;;;5056767;28;20040;-62
2022/05/24 04:23:02;;;;;;;59.37;39.60;;;;;;;;;;5070225;28;20623;-62
2022/05/24 04:25:35;;;;;;;82.53;42.60;;;;;;;;;;5069769;28;20052;-63
2022/05/24 04:28:01;;;;;;;58.43;40.00;;;;;;;;;;5070887;28;20048;-63
2022/05/24 04:30:27;;;;;;;69.60;40.53;;;;;;;;;;5070907;28;20392;-63
2022/05/24 04:32:53;;;;;;;65.03;41.20;;;;;;;;;;5069584;28;20036;-63
2022/05/24 04:35:19;;;;;;;63.83;39.17;;;;;;;;;;5059315;28;20128;-63
2022/05/24 04:37:45;;;;;;;60.67;39.97;;;;;;;;;;5055502;28;20045;-62
2022/05/24 04:40:11;;;;;;;62.03;37.23;;;;;;;;;;5050134;28;20130;-62
2022/05/24 04:42:38;;;;;;;57.10;36.43;;;;;;;;;;5050099;28;20110;-62
2022/05/24 04:45:06;;;;;;;63.13;37.13;;;;;;;;;;5061723;28;20044;-62
2022/05/24 04:47:32;;;;;;;55.57;37.10;;;;;;;;;;5069297;28;20484;-62
2022/05/24 04:50:00;;;;;;;72.63;39.10;;;;;;;;;;5062185;28;20076;-62
2022/05/24 04:52:27;;;;;;;61.20;36.43;;;;;;;;;;5053612;28;20040;-62
2022/05/24 04:54:54;;;;;;;52.03;33.03;;;;;;;;;;5050394;28;20069;-62
2022/05/24 04:57:21;;;;;;;55.93;33.07;;;;;;;;;;5051226;28;20566;-62
2022/05/24 04:59:47;;;;;;;43.97;30.13;;;;;;;;;;5051462;28;20047;-62
2022/05/24 05:02:13;;;;;;;45.37;27.83;;;;;;;;;;5060994;28;20105;-62
2022/05/24 05:04:39;;;;;;;52.13;29.20;;;;;;;;;;5064626;28;20041;-62
2022/05/24 05:07:05;;;;;;;46.57;29.23;;;;;;;;;;5051063;28;20045;-62
2022/05/24 05:09:35;;;;;;;45.07;29.17;;;;;;;;;;5059574;28;20090;-62
2022/05/24 05:12:02;;;;;;;71.03;32.93;;;;;;;;;;5070975;28;20075;-62
2022/05/24 05:14:28;;;;;;;42.60;28.07;;;;;;;;;;5070367;28;20114;-62
2022/05/24 05:16:54;;;;;;;47.97;28.07;;;;;;;;;;5070655;28;20048;-62
2022/05/24 05:19:21;;;;;;;50.03;27.93;;;;;;;;;;5052835;28;20052;-62
2022/05/24 05:21:47;;;;;;;41.07;27.03;;;;;;;;;;5063300;28;20463;-62
2022/05/24 05:24:13;;;;;;;43.67;25.40;;;;;;;;;;5050948;28;20537;-62
2022/05/24 05:26:39;;;;;;;44.90;26.07;;;;;;;;;;5049622;28;20048;-62
2022/05/24 05:29:05;;;;;;;43.23;24.40;;;;;;;;;;5054963;28;20033;-62
2022/05/24 05:31:31;;;;;;;39.33;22.83;;;;;;;;;;5064214;28;20044;-62
2022/05/24 05:33:58;;;;;;;35.00;22.40;;;;;;;;;;5070619;28;20048;-62
2022/05/24 05:36:24;;;;;;;33.17;21.33;;;;;;;;;;5052177;28;20472;-62
2022/05/24 05:38:50;;;;;;;37.10;22.17;;;;;;;;;;5064948;28;20102;-62
2022/05/24 05:41:18;;;;;;;32.20;22.23;;;;;;;;;;5070409;28;20060;-62
2022/05/24 05:43:44;;;;;;;32.73;22.33;;;;;;;;;;5063838;28;20049;-62
2022/05/24 05:46:11;;;;;;;32.33;22.83;;;;;;;;;;5050446;28;20041;-62
2022/05/24 05:48:37;;;;;;;39.87;24.13;;;;;;;;;;5048916;28;20049;-62
2022/05/24 05:51:04;;;;;;;30.87;22.73;;;;;;;;;;5058310;28;20128;-62
2022/05/24 05:53:30;;;;;;;35.83;24.03;;;;;;;;;;5061832;28;20052;-62
2022/05/24 05:55:56;;;;;;;37.63;22.83;;;;;;;;;;5049940;28;20045;-62
2022/05/24 05:58:22;;;;;;;35.27;22.87;;;;;;;;;;5050319;28;20045;-62
2022/05/24 06:00:49;;;;;;;38.90;23.20;;;;;;;;;;5063439;28;20094;-62
2022/05/24 06:03:16;;;;;;;38.37;25.37;;;;;;;;;;5064486;28;20111;-62
2022/05/24 06:05:44;;;;;;;33.33;22.87;;;;;;;;;;5069343;28;20045;-62
2022/05/24 06:08:10;;;;;;;28.73;21.80;;;;;;;;;;5069423;28;20048;-62
2022/05/24 06:10:37;;;;;;;34.60;23.33;;;;;;;;;;5069539;28;20040;-62
2022/05/24 06:13:04;;;;;;;33.70;23.63;;;;;;;;;;5069821;28;20043;-62
2022/05/24 06:15:30;;;;;;;29.30;22.30;;;;;;;;;;5069060;28;20498;-62
2022/05/24 06:17:57;;;;;;;25.37;20.53;;;;;;;;;;5063869;28;20072;-62
2022/05/24 06:20:24;;;;;;;31.27;20.23;;;;;;;;;;5066714;28;20048;-62
2022/05/24 06:22:52;;;;;;;30.70;21.30;;;;;;;;;;5051966;28;20040;-62
2022/05/24 06:25:19;;;;;;;30.73;20.13;;;;;;;;;;5062333;28;20048;-62
2022/05/24 06:27:45;;;;;;;28.93;20.33;;;;;;;;;;5061882;28;20415;-62
2022/05/24 06:30:11;;;;;;;29.83;19.57;;;;;;;;;;5049863;28;20040;-62
2022/05/24 06:32:37;;;;;;;34.17;22.63;;;;;;;;;;5055599;28;20728;-62
2022/05/24 06:35:03;;;;;;;23.80;18.00;;;;;;;;;;5068879;28;20044;-62
2022/05/24 06:37:30;;;;;;;25.53;18.80;;;;;;;;;;5067099;28;20119;-61
2022/05/24 06:39:56;;;;;;;25.97;17.23;;;;;;;;;;5050010;28;20067;-62
2022/05/24 06:42:22;;;;;;;29.37;18.37;;;;;;;;;;5068562;28;20040;-62
2022/05/24 06:44:48;;;;;;;29.17;18.80;;;;;;;;;;5068831;28;20086;-61
2022/05/24 06:47:15;;;;;;;25.57;17.40;;;;;;;;;;5066556;28;20443;-62
2022/05/24 06:49:41;;;;;;;27.37;16.63;;;;;;;;;;5056378;28;20106;-61
2022/05/24 06:52:08;;;;;;;27.57;18.03;;;;;;;;;;5058857;28;20106;-61
2022/05/24 06:54:35;;;;;;;25.73;17.97;;;;;;;;;;5060996;28;20049;-61
2022/05/24 06:57:01;;;;;;;26.43;16.90;;;;;;;;;;5059208;28;20105;-61
2022/05/24 07:02:25;;;;;;;26.83;16.17;;;;;;;;;;5058367;28;20070;-61
2022/05/24 07:05:01;;;;;;;20.63;15.97;;;;;;;;;;5060604;28;20044;-61
2022/05/24 07:07:28;;;;;;;21.80;16.33;;;;;;;;;;5068181;28;20055;-61
2022/05/24 07:09:54;;;;;;;22.43;16.43;;;;;;;;;;5068426;28;20068;-61
2022/05/24 07:12:21;;;;;;;27.93;16.87;;;;;;;;;;5068680;28;20043;-62
2022/05/24 07:14:48;;;;;;;23.90;17.53;;;;;;;;;;5068624;28;20043;-61
2022/05/24 07:17:15;;;;;;;23.60;17.43;;;;;;;;;;5069042;28;20047;-61
2022/05/24 07:19:41;;;;;;;20.50;16.57;;;;;;;;;;5068349;28;20048;-61
2022/05/24 07:22:07;;;;;;;30.30;16.63;;;;;;;;;;5066726;28;20059;-61
2022/05/24 07:24:33;;;;;;;25.33;16.27;;;;;;;;;;5051977;28;20072;-61
2022/05/24 07:26:59;;;;;;;27.73;18.50;;;;;;;;;;5048363;28;20045;-61
2022/05/24 07:29:26;;;;;;;17.87;14.80;;;;;;;;;;5047986;28;20358;-61
2022/05/24 07:31:52;;;;;;;22.80;15.87;;;;;;;;;;5049082;28;21133;-61
2022/05/24 07:34:19;;;;;;;19.23;15.90;;;;;;;;;;5048813;28;20052;-61
2022/05/24 07:36:45;;;;;;;24.87;15.87;;;;;;;;;;5048639;28;20045;-61
2022/05/24 07:39:11;;;;;;;27.43;15.90;;;;;;;;;;5058349;28;20123;-62
2022/05/24 07:47:09;;;;;;;21.73;14.27;;;;;;;;;;5054209;28;20049;-61
2022/05/24 07:49:36;;;;;;;20.17;14.60;;;;;;;;;;5065007;28;20052;-61
2022/05/24 07:52:02;;;;;;;18.73;12.73;;;;;;;;;;5067353;28;20485;-61
2022/05/24 07:54:28;;;;;;;17.50;13.47;;;;;;;;;;5067091;28;20036;-61
2022/05/24 07:56:54;;;;;;;18.07;13.27;;;;;;;;;;5067241;28;20045;-61
2022/05/24 07:59:20;;;;;;;19.33;11.20;;;;;;;;;;5067367;28;20495;-61
2022/05/24 08:01:46;;;;;;;18.53;10.90;;;;;;;;;;5066298;28;20040;-63
2022/05/24 08:04:12;;;;;;;14.73;9.67;;;;;;;;;;5049915;28;20087;-61
2022/05/24 08:06:38;;;;;;;13.23;8.77;;;;;;;;;;5058637;28;20052;-61
2022/05/24 08:09:04;;;;;;;13.63;8.07;;;;;;;;;;5064167;28;20041;-61
2022/05/24 08:11:30;;;;;;;12.30;7.60;;;;;;;;;;5059488;28;20049;-61
2022/05/24 08:13:58;;;;;;;17.23;6.83;;;;;;;;;;5061420;28;20051;-61
2022/05/24 08:16:25;;;;;;;12.17;6.00;;;;;;;;;;5057681;28;20460;-61
2022/05/24 08:18:51;;;;;;;12.10;5.80;;;;;;;;;;5051590;28;20040;-61
2022/05/24 08:21:18;;;;;;;8.53;5.03;;;;;;;;;;5049939;28;20559;-61
2022/05/24 08:23:44;;;;;;;11.00;6.00;;;;;;;;;;5051297;28;20111;-61
2022/05/24 08:26:10;;;;;;;8.87;5.70;;;;;;;;;;5055344;28;20051;-61
2022/05/24 08:28:36;;;;;;;8.03;4.73;;;;;;;;;;5063034;28;20049;-61
2022/05/24 08:31:02;;;;;;;13.77;6.03;;;;;;;;;;5064309;28;20033;-61
2022/05/24 08:33:28;;;;;;;9.63;5.40;;;;;;;;;;5069618;28;20096;-61
2022/05/24 08:35:55;;;;;;;10.90;5.20;;;;;;;;;;5071848;28;20520;-61
2022/05/24 08:38:23;;;;;;;10.03;4.40;;;;;;;;;;5069971;28;20044;-61
2022/05/24 08:40:50;;;;;;;8.67;5.00;;;;;;;;;;5068070;28;20052;-61
2022/05/24 08:43:21;;;;;;;9.97;4.53;;;;;;;;;;5057564;28;20049;-61
2022/05/24 08:48:52;;;;;;;7.43;4.40;;;;;;;;;;5071493;28;20135;-60
2022/05/24 08:51:28;;;;;;;11.37;3.90;;;;;;;;;;5049615;28;20048;-60
2022/05/24 08:53:55;;;;;;;7.63;3.80;;;;;;;;;;5068593;28;20055;-60
2022/05/24 08:56:34;;;;;;;7.03;3.63;;;;;;;;;;5071133;28;20045;-60
2022/05/24 08:59:04;;;;;;;8.97;3.53;;;;;;;;;;5070072;28;20040;-60
2022/05/24 09:01:33;;;;;;;8.40;3.40;;;;;;;;;;5069860;28;20119;-60
2022/05/24 09:04:00;;;;;;;7.03;3.50;;;;;;;;;;5071095;28;20525;-61
2022/05/24 09:06:26;;;;;;;7.73;3.67;;;;;;;;;;5070311;28;20048;-60
2022/05/24 09:09:07;;;;;;;13.47;4.40;;;;;;;;;;5069504;28;20063;-60
2022/05/24 09:11:41;;;;;;;6.73;3.40;;;;;;;;;;5062180;28;20045;-60
2022/05/24 09:14:11;;;;;;;7.90;3.90;;;;;;;;;;5055005;28;20049;-60
2022/05/24 09:16:40;;;;;;;9.17;4.83;;;;;;;;;;5070521;28;20071;-60
2022/05/24 09:19:26;;;;;;;9.80;4.13;;;;;;;;;;5068983;28;20053;-60
2022/05/24 09:21:53;;;;;;;6.90;3.63;;;;;;;;;;5063278;28;20051;-60
2022/05/24 09:24:19;;;;;;;6.67;3.47;;;;;;;;;;5069080;28;20102;-61
2022/05/24 09:27:03;;;;;;;5.57;3.33;;;;;;;;;;5069548;28;20067;-61
2022/05/24 09:29:31;;;;;;;7.40;3.17;;;;;;;;;;5069830;28;20045;-60
2022/05/24 09:31:58;;;;;;;6.87;3.33;;;;;;;;;;5070523;28;20045;-61
2022/05/24 09:34:30;;;;;;;9.20;3.50;;;;;;;;;;5064631;28;20028;-61
2022/05/24 09:36:57;;;;;;;6.10;3.10;;;;;;;;;;5065102;28;20051;-61
2022/05/24 09:39:30;;;;;;;9.03;3.20;;;;;;;;;;5066690;28;20060;-60
2022/05/24 09:41:56;;;;;;;5.93;3.35;;;;;;;;;;5063276;28;20049;-60
2022/05/24 09:44:22;;;;;;;6.57;4.10;;;;;;;;;;5068120;28;20110;-60
2022/05/24 09:46:48;;;;;;;6.57;3.23;;;;;;;;;;5068470;28;20056;-60
2022/05/24 09:49:34;;;;;;;5.53;2.97;;;;;;;;;;5066076;28;20047;-60
2022/05/24 09:52:14;;;;;;;4.00;1.90;;;;;;;;;;5057940;28;20048;-61
2022/05/24 09:54:54;;;;;;;4.17;1.10;;;;;;;;;;5062186;28;20045;-59
2022/05/24 09:57:32;;;;;;;2.73;0.90;;;;;;;;;;5059045;28;20037;-60
2022/05/24 10:00:01;;;;;;;2.93;1.00;;;;;;;;;;5068986;28;20047;-59
2022/05/24 10:02:28;;;;;;;2.70;0.90;;;;;;;;;;5057766;28;20040;-60
2022/05/24 10:04:55;;;;;;;2.37;1.20;;;;;;;;;;5055396;28;20371;-60
2022/05/24 10:07:35;;;;;;;3.83;1.60;;;;;;;;;;5048233;28;20146;-60
2022/05/24 10:10:07;;;;;;;2.90;1.27;;;;;;;;;;5065037;28;20502;-60
2022/05/24 10:12:41;;;;;;;5.47;1.10;;;;;;;;;;5056547;28;20071;-60
2022/05/24 10:15:10;;;;;;;1.63;1.20;;;;;;;;;;5053480;28;20090;-59
2022/05/24 10:17:44;;;;;;;5.93;1.77;;;;;;;;;;5062212;28;20512;-60
2022/05/24 10:20:10;;;;;;;5.27;1.30;;;;;;;;;;5052983;28;20097;-60
2022/05/24 10:22:44;;;;;;;5.50;0.97;;;;;;;;;;5068209;28;20040;-60
2022/05/24 10:25:29;;;;;;;1.80;0.80;;;;;;;;;;5048450;28;20045;-60
2022/05/24 10:28:07;;;;;;;3.43;1.07;;;;;;;;;;5047993;28;20053;-59
2022/05/24 10:30:53;;;;;;;4.07;1.43;;;;;;;;;;5050896;28;20079;-60
2022/05/24 10:39:25;;;;;;;4.57;0.50;;;;;;;;;;5049287;28;20132;-60
2022/05/24 10:41:51;;;;;;;1.60;0.50;;;;;;;;;;5049099;28;20468;-60
2022/05/24 10:44:24;;;;;;;3.27;0.80;;;;;;;;;;5049208;28;20131;-60
2022/05/24 10:46:56;;;;;;;3.92;1.17;;;;;;;;;;5048403;28;20045;-59
2022/05/24 10:49:26;;;;;;;2.80;1.00;;;;;;;;;;5047111;28;20048;-59
2022/05/24 10:52:04;;;;;;;2.80;1.00;;;;;;;;;;5049258;28;20047;-60
2022/05/24 10:54:34;;;;;;;2.33;1.00;;;;;;;;;;5049010;28;20045;-59
2022/05/24 10:57:04;;;;;;;2.67;1.27;;;;;;;;;;5049528;28;20045;-59
2022/05/24 10:59:42;;;;;;;4.40;1.10;;;;;;;;;;5048865;28;20053;-59
2022/05/24 11:02:20;;;;;;;4.03;1.60;;;;;;;;;;5049063;28;20053;-59
2022/05/24 11:04:46;;;;;;;4.10;2.00;;;;;;;;;;5049198;28;20040;-60
2022/05/24 11:07:17;;;;;;;3.07;1.80;;;;;;;;;;5056266;28;20039;-59
2022/05/24 11:09:47;;;;;;;5.47;2.10;;;;;;;;;;5069336;28;20152;-60
2022/05/24 11:12:19;;;;;;;4.13;2.17;;;;;;;;;;5068859;28;20056;-60
2022/05/24 11:14:57;;;;;;;5.63;2.90;;;;;;;;;;5055740;28;20075;-59
2022/05/24 11:17:23;;;;;;;3.13;2.10;;;;;;;;;;5066295;28;20453;-59
2022/05/24 11:19:55;;;;;;;4.60;2.80;;;;;;;;;;5069004;28;20545;-60
2022/05/24 11:22:27;;;;;;;3.83;2.37;;;;;;;;;;5067871;28;20053;-60
2022/05/24 11:24:57;;;;;;;5.53;2.30;;;;;;;;;;5068930;28;20101;-59
2022/05/24 11:27:27;;;;;;;7.33;2.93;;;;;;;;;;5068643;28;20049;-60
2022/05/24 11:30:14;;;;;;;6.90;4.47;;;;;;;;;;5068900;28;20413;-59
2022/05/24 11:32:54;;;;;;;9.97;3.87;;;;;;;;;;5067801;28;20056;-60
2022/05/24 11:35:20;;;;;;;14.90;3.17;;;;;;;;;;5068739;28;20052;-61
2022/05/24 11:37:57;;;;;;;6.10;3.30;;;;;;;;;;5068844;28;20422;-62
2022/05/24 11:40:39;;;;;;;3.70;2.03;;;;;;;;;;5068634;28;20203;-62
2022/05/24 11:43:05;;;;;;;4.43;2.63;;;;;;;;;;5069162;28;20123;-62
2022/05/24 11:45:34;;;;;;;3.50;2.40;;;;;;;;;;5068307;28;20040;-62
2022/05/24 11:48:07;;;;;;;4.93;2.33;;;;;;;;;;5057412;28;20044;-63
2022/05/24 11:50:36;;;;;;;3.80;2.00;;;;;;;;;;5072662;28;20045;-62
2022/05/24 11:53:05;;;;;;;4.13;2.57;;;;;;;;;;5072413;28;20048;-62
2022/05/24 11:55:37;;;;;;;4.83;2.07;;;;;;;;;;5071712;28;20611;-62
2022/05/24 11:58:18;;;;;;;4.90;2.00;;;;;;;;;;5071922;28;20041;-62
2022/05/24 12:01:02;;;;;;;10.03;2.33;;;;;;;;;;5072432;28;20047;-62
2022/05/24 12:09:12;;;;;;;5.97;3.20;;;;;;;;;;5071822;28;20041;-61
2022/05/24 12:11:39;;;;;;;3.27;1.80;;;;;;;;;;5071835;28;20109;-61
2022/05/24 12:14:20;;;;;;;5.60;3.40;;;;;;;;;;5072035;28;20052;-61
2022/05/24 12:16:55;;;;;;;4.27;1.60;;;;;;;;;;5071845;28;20055;-61
2022/05/24 12:19:33;;;;;;;3.43;1.50;;;;;;;;;;5072035;28;20098;-61
2022/05/24 12:22:02;;;;;;;3.40;1.97;;;;;;;;;;5071881;28;20048;-61
2022/05/24 12:24:37;;;;;;;2.93;1.20;;;;;;;;;;5071491;28;20057;-60
2022/05/24 12:27:09;;;;;;;4.23;1.00;;;;;;;;;;5072026;28;20084;-60
2022/05/24 12:29:35;;;;;;;3.43;1.00;;;;;;;;;;5072140;28;20044;-60
2022/05/24 12:32:04;;;;;;;4.57;0.97;;;;;;;;;;5071549;28;20128;-60
2022/05/24 12:34:32;;;;;;;1.90;0.83;;;;;;;;;;5071439;28;20046;-60
2022/05/24 12:36:59;;;;;;;1.67;0.63;;;;;;;;;;5071983;28;20040;-60
2022/05/24 12:39:26;;;;;;;2.40;0.70;;;;;;;;;;5070922;28;20059;-60
2022/05/24 12:42:00;;;;;;;2.57;0.60;;;;;;;;;;5071438;28;20052;-60
2022/05/24 12:44:28;;;;;;;1.80;0.50;;;;;;;;;;5071099;28;20522;-60
2022/05/24 12:46:55;;;;;;;2.43;0.90;;;;;;;;;;5059111;28;20056;-60
2022/05/24 12:49:23;;;;;;;2.30;1.10;;;;;;;;;;5050536;28;20041;-60
2022/05/24 12:51:53;;;;;;;1.90;0.73;;;;;;;;;;5051170;28;20131;-60
2022/05/24 12:54:26;;;;;;;3.27;1.00;;;;;;;;;;5051289;28;20098;-60
2022/05/24 12:57:12;;;;;;;1.65;0.60;;;;;;;;;;5050810;28;20078;-60
2022/05/24 12:59:40;;;;;;;3.03;0.97;;;;;;;;;;5043743;28;20511;-60
2022/05/24 13:02:19;;;;;;;1.47;0.60;;;;;;;;;;5051409;28;20064;-60
2022/05/24 13:04:45;;;;;;;2.27;0.83;;;;;;;;;;5051114;28;20048;-60
2022/05/24 13:07:30;;;;;;;2.37;0.93;;;;;;;;;;5068661;28;20151;-60
2022/05/24 13:09:56;;;;;;;3.70;1.00;;;;;;;;;;5071016;28;20147;-60
2022/05/24 13:12:22;;;;;;;4.43;1.10;;;;;;;;;;5070271;28;20735;-60
2022/05/24 13:14:56;;;;;;;2.53;1.43;;;;;;;;;;5070206;28;20052;-60
2022/05/24 13:17:24;;;;;;;2.60;1.17;;;;;;;;;;5070271;28;20127;-59
2022/05/24 13:19:58;;;;;;;4.90;1.73;;;;;;;;;;5069362;28;20044;-60
2022/05/24 13:22:57;;;;;;;4.57;1.40;;;;;;;;;;5052911;28;20513;-60
2022/05/24 13:25:23;;;;;;;2.37;1.00;;;;;;;;;;5048751;28;20128;-60
2022/05/24 13:27:50;;;;;;;3.53;1.00;;;;;;;;;;5062691;28;20049;-59
2022/05/24 13:35:49;;;;;;;2.50;1.10;;;;;;;;;;5066027;28;20036;-60
2022/05/24 13:38:21;;;;;;;4.40;1.40;;;;;;;;;;5058580;28;20044;-59
2022/05/24 13:40:55;;;;;;;2.73;1.03;;;;;;;;;;5066234;28;20083;-59
2022/05/24 13:43:31;;;;;;;5.43;1.83;;;;;;;;;;5054161;28;20041;-59
2022/05/24 13:46:16;;;;;;;4.53;1.03;;;;;;;;;;5067235;28;20052;-59
2022/05/24 13:48:53;;;;;;;2.43;0.97;;;;;;;;;;5063375;28;20044;-59
2022/05/24 13:51:20;;;;;;;3.93;1.17;;;;;;;;;;5055014;28;20040;-59
2022/05/24 13:53:46;;;;;;;3.90;1.23;;;;;;;;;;5062697;28;20051;-59
2022/05/24 13:56:15;;;;;;;4.27;0.90;;;;;;;;;;5069537;28;20511;-60
2022/05/24 13:58:46;;;;;;;3.03;1.03;;;;;;;;;;5067425;28;20072;-59
2022/05/24 14:01:23;;;;;;;2.63;1.07;;;;;;;;;;5059431;28;20430;-59
2022/05/24 14:03:53;;;;;;;3.33;0.83;;;;;;;;;;5057201;28;20131;-60
2022/05/24 14:06:21;;;;;;;4.43;1.00;;;;;;;;;;5068072;28;20041;-60
2022/05/24 14:08:49;;;;;;;2.97;1.30;;;;;;;;;;5054734;28;20045;-59
2022/05/24 14:11:17;;;;;;;3.53;1.07;;;;;;;;;;5059270;28;20414;-60
2022/05/24 14:13:44;;;;;;;2.67;0.83;;;;;;;;;;5067353;28;20094;-60
2022/05/24 14:16:11;;;;;;;3.63;1.07;;;;;;;;;;5068452;28;20098;-59
2022/05/24 14:18:37;;;;;;;5.47;1.10;;;;;;;;;;5067978;28;20043;-59
2022/05/24 14:21:04;;;;;;;3.00;1.20;;;;;;;;;;5069804;28;20055;-59
2022/05/24 14:23:30;;;;;;;4.13;1.17;;;;;;;;;;5054762;28;20044;-60
2022/05/24 14:25:56;;;;;;;5.23;1.10;;;;;;;;;;5048931;28;20045;-60
2022/05/24 14:28:22;;;;;;;3.57;1.00;;;;;;;;;;5048562;28;20045;-60
2022/05/24 14:30:48;;;;;;;2.67;0.87;;;;;;;;;;5049456;28;20052;-60
2022/05/24 14:33:16;;;;;;;5.10;1.00;;;;;;;;;;5048743;28;20067;-60
2022/05/24 14:35:42;;;;;;;3.77;1.00;;;;;;;;;;5049340;28;20048;-60
2022/05/24 14:38:09;;;;;;;2.73;0.80;;;;;;;;;;5049944;28;20515;-60
2022/05/24 14:40:41;;;;;;;5.17;1.37;;;;;;;;;;5055145;28;20045;-60
2022/05/24 14:43:12;;;;;;;4.13;1.15;;;;;;;;;;5069537;28;20131;-60
2022/05/24 14:45:38;;;;;;;5.03;1.20;;;;;;;;;;5068799;28;20211;-60
2022/05/24 14:48:04;;;;;;;2.60;1.20;;;;;;;;;;5069198;28;20119;-60
2022/05/24 14:50:31;;;;;;;4.10;1.27;;;;;;;;;;5067750;28;20135;-60
2022/05/24 14:52:57;;;;;;;2.80;1.00;;;;;;;;;;5049593;28;20072;-60
2022/05/24 14:55:25;;;;;;;3.67;1.20;;;;;;;;;;5053454;28;20081;-60
2022/05/24 14:57:51;;;;;;;4.40;1.20;;;;;;;;;;5060532;28;20040;-60
2022/05/24 15:00:18;;;;;;;5.35;1.30;;;;;;;;;;5055108;28;20044;-60
2022/05/24 15:02:44;;;;;;;2.55;1.20;;;;;;;;;;5060725;28;20368;-60
2022/05/24 15:05:11;;;;;;;4.45;1.10;;;;;;;;;;5066695;28;20062;-59
2022/05/24 15:15:51;;;;;;;2.70;1.10;;;;;;;;;;5062704;28;20471;-60
2022/05/24 15:18:17;;;;;;;2.47;0.77;;;;;;;;;;5047239;28;20040;-59
2022/05/24 15:20:45;;;;;;;9.20;1.37;;;;;;;;;;5049865;28;20048;-60
2022/05/24 15:23:19;;;;;;;3.37;0.80;;;;;;;;;;5053285;28;20041;-60
2022/05/24 15:25:56;;;;;;;3.63;0.80;;;;;;;;;;5053369;28;20071;-60
2022/05/24 15:28:25;;;;;;;2.85;1.02;;;;;;;;;;5052575;28;20056;-60
2022/05/24 15:30:52;;;;;;;2.63;1.02;;;;;;;;;;5051930;28;20049;-60